Archival Weather

Prince Abdulmajeed Bin Abdula

Prince Abdulmajeed Bin Abdula, Saudi Arabia (OEAO)

Report from: Monday, May 23, 2022 9:00 PM UTC
Current time: Tuesday, August 16, 2022 6:36 AM UTC

Current weather
Weather history
Weather forecast

Temperature30.0°C (86.0°F)
Heat index28.1°C (82.7°F)
Dew point-5.0°C (23.0°F)
Winds 4 kts (2.1 m/s, 4.6 mph) North (360°)
Clouds Sky clear
Altimeter29.85 in.Hg (1011 mB)
Relative humidity10 %
Density altitude1,868 ft. (569 m)
Remarks Ceiling and visibility OK
No significant changes expected in the next two hours
Flight conditions Visual Meteorological Conditions
Raw dataOEAO 232100Z 36004KT CAVOK 30/M05 Q1011 NOSIG
An error has occurred. This application may no longer respond until reloaded. Reload 🗙